createdAt,value
2019-03-01T00:00:22.013Z,10.36
2019-03-01T00:01:22.037Z,10.36
2019-03-01T00:02:22.024Z,10.36
2019-03-01T00:03:21.981Z,10.35
2019-03-01T00:04:21.961Z,10.42
2019-03-01T00:05:21.952Z,10.35
2019-03-01T00:06:21.981Z,10.39
2019-03-01T00:07:21.935Z,10.36
2019-03-01T00:08:21.926Z,10.35
2019-03-01T00:09:21.910Z,10.39
2019-03-01T00:10:21.898Z,10.24
2019-03-01T00:11:21.887Z,10.34
2019-03-01T00:12:21.911Z,10.28
2019-03-01T00:13:21.864Z,10.30
2019-03-01T00:14:21.847Z,10.38
2019-03-01T00:15:21.838Z,10.36
2019-03-01T00:16:21.829Z,10.28
2019-03-01T00:17:21.829Z,10.34
2019-03-01T00:18:21.859Z,10.30
2019-03-01T00:19:21.806Z,10.35
2019-03-01T00:20:21.779Z,10.28
2019-03-01T00:21:21.768Z,10.36
2019-03-01T00:22:21.761Z,10.38
2019-03-01T00:23:21.754Z,10.41
2019-03-01T00:24:21.777Z,10.45
2019-03-01T00:25:21.728Z,10.43
2019-03-01T00:26:21.714Z,10.43
2019-03-01T00:27:21.702Z,10.43
2019-03-01T00:28:21.693Z,10.45
2019-03-01T00:29:21.681Z,10.45
2019-03-01T00:30:21.709Z,10.48
2019-03-01T00:31:21.659Z,10.43
2019-03-01T00:32:21.643Z,10.46
2019-03-01T00:33:21.632Z,10.54
2019-03-01T00:34:21.623Z,10.48
2019-03-01T00:35:21.626Z,10.39
2019-03-01T00:36:21.639Z,10.43
2019-03-01T00:37:21.592Z,10.41
2019-03-01T00:38:21.616Z,10.39
2019-03-01T00:39:21.566Z,10.46
2019-03-01T00:40:21.558Z,10.48
2019-03-01T00:41:21.547Z,10.38
2019-03-01T00:42:21.531Z,10.46
2019-03-01T00:43:21.526Z,10.46
2019-03-01T00:44:21.557Z,10.46
2019-03-01T00:45:21.507Z,10.43
2019-03-01T00:46:21.578Z,10.35
2019-03-01T00:47:21.477Z,10.48
2019-03-01T00:48:21.508Z,10.49
2019-03-01T00:49:21.458Z,10.46
2019-03-01T00:50:21.482Z,10.58
2019-03-01T00:51:21.429Z,10.61
2019-03-01T00:52:21.419Z,10.55
2019-03-01T00:53:21.409Z,10.49
2019-03-01T00:54:21.403Z,10.49
2019-03-01T00:55:21.430Z,10.48
2019-03-01T00:56:21.371Z,10.46
2019-03-01T00:57:21.375Z,10.45
2019-03-01T00:58:21.394Z,10.46
2019-03-01T00:59:21.394Z,10.43
2019-03-01T01:00:21.333Z,10.46
2019-03-01T01:01:21.316Z,10.42
2019-03-01T01:02:21.303Z,10.42
2019-03-01T01:03:21.292Z,10.42
2019-03-01T01:04:21.338Z,10.43
2019-03-01T01:05:21.276Z,10.45
2019-03-01T01:06:21.304Z,10.41
2019-03-01T01:07:21.260Z,10.35
2019-03-01T01:08:21.237Z,10.31
2019-03-01T01:09:21.223Z,10.27
2019-03-01T01:10:21.210Z,10.26
2019-03-01T01:11:21.205Z,10.31
2019-03-01T01:12:21.235Z,10.28
2019-03-01T01:13:21.217Z,10.21
2019-03-01T01:14:21.241Z,10.31
2019-03-01T01:15:21.158Z,10.31
2019-03-01T01:16:21.196Z,10.24
2019-03-01T01:17:22.142Z,10.34
2019-03-01T01:18:21.122Z,10.30
2019-03-01T01:19:21.124Z,10.28
2019-03-01T01:20:21.142Z,10.31
2019-03-01T01:21:21.095Z,10.41
2019-03-01T01:22:21.077Z,10.42
2019-03-01T01:23:21.068Z,10.43
2019-03-01T01:24:21.101Z,10.38
2019-03-01T01:25:21.094Z,10.34
2019-03-01T01:26:21.074Z,10.28
2019-03-01T01:27:21.022Z,10.30
2019-03-01T01:28:21.009Z,10.30
2019-03-01T01:29:21.011Z,10.28
2019-03-01T01:30:20.992Z,10.35
2019-03-01T01:31:21.060Z,10.34
2019-03-01T01:32:21.009Z,10.31
2019-03-01T01:33:20.952Z,10.31
2019-03-01T01:34:21.013Z,10.34
2019-03-01T01:35:21.345Z,10.31
2019-03-01T01:36:20.921Z,10.28
2019-03-01T01:37:20.908Z,10.38
2019-03-01T01:38:20.899Z,10.27
2019-03-01T01:39:20.905Z,10.28
2019-03-01T01:40:20.873Z,10.12
2019-03-01T01:41:20.911Z,10.09
2019-03-01T01:42:20.846Z,10.09
2019-03-01T01:43:20.886Z,10.16
2019-03-01T01:44:20.877Z,10.14
2019-03-01T01:45:20.816Z,10.05
2019-03-01T01:46:20.815Z,10.09
2019-03-01T01:47:20.791Z,10.09
2019-03-01T01:48:20.780Z,10.16
2019-03-01T01:49:20.825Z,10.14
2019-03-01T01:50:20.764Z,10.24
2019-03-01T01:51:20.789Z,10.30
2019-03-01T01:52:20.741Z,10.23
2019-03-01T01:53:20.722Z,10.30
2019-03-01T01:54:20.712Z,10.23
2019-03-01T01:55:20.704Z,10.30
2019-03-01T01:56:20.698Z,10.30
2019-03-01T01:57:20.727Z,10.21
2019-03-01T01:58:20.676Z,10.18
2019-03-01T01:59:20.665Z,10.28
2019-03-01T02:00:20.684Z,10.30
2019-03-01T02:01:20.674Z,10.34
2019-03-01T02:02:20.621Z,10.35
2019-03-01T02:03:20.610Z,10.28
2019-03-01T02:04:20.597Z,10.38
2019-03-01T02:05:20.611Z,10.39
2019-03-01T02:06:20.577Z,10.41
2019-03-01T02:07:20.605Z,10.36
2019-03-01T02:08:20.562Z,10.35
2019-03-01T02:09:20.577Z,10.45
2019-03-01T02:10:20.579Z,10.35
2019-03-01T02:11:20.518Z,10.41
2019-03-01T02:12:20.555Z,10.35
2019-03-01T02:13:20.503Z,10.31
2019-03-01T02:14:20.528Z,10.31
2019-03-01T02:15:20.475Z,10.35
2019-03-01T02:16:20.507Z,10.28
2019-03-01T02:17:20.507Z,10.28
2019-03-01T02:18:20.438Z,10.34
2019-03-01T02:19:20.431Z,10.34
2019-03-01T02:20:20.418Z,10.28
2019-03-01T02:21:20.408Z,10.28
2019-03-01T02:22:20.398Z,10.36
2019-03-01T02:23:20.432Z,10.41
2019-03-01T02:24:20.416Z,10.43
2019-03-01T02:25:20.367Z,10.41
2019-03-01T02:26:20.347Z,10.46
2019-03-01T02:27:20.338Z,10.45
2019-03-01T02:28:20.327Z,10.57
2019-03-01T02:29:20.354Z,10.55
2019-03-01T02:30:20.322Z,10.48
2019-03-01T02:31:20.292Z,10.57
2019-03-01T02:32:20.281Z,10.43
2019-03-01T02:33:20.293Z,10.55
2019-03-01T02:34:20.302Z,10.46
2019-03-01T02:35:20.247Z,10.52
2019-03-01T02:36:20.283Z,10.43
2019-03-01T02:37:20.228Z,10.52
2019-03-01T02:38:20.221Z,10.46
2019-03-01T02:39:20.218Z,10.52
2019-03-01T02:40:20.201Z,10.48
2019-03-01T02:41:20.226Z,10.43
2019-03-01T02:42:20.170Z,10.45
2019-03-01T02:43:20.153Z,10.52
2019-03-01T02:44:20.142Z,10.45
2019-03-01T02:45:20.133Z,10.36
2019-03-01T02:46:20.143Z,10.42
2019-03-01T02:47:20.167Z,10.38
2019-03-01T02:48:20.103Z,10.30
2019-03-01T02:49:20.142Z,10.28
2019-03-01T02:50:20.076Z,10.34
2019-03-01T02:51:20.068Z,10.28
2019-03-01T02:52:20.095Z,10.24
2019-03-01T02:53:20.047Z,10.24
2019-03-01T02:54:20.073Z,10.18
2019-03-01T02:55:20.018Z,10.17
2019-03-01T02:56:20.011Z,10.14
2019-03-01T02:57:20.061Z,10.12
2019-03-01T02:58:19.993Z,10.08
2019-03-01T02:59:19.984Z,10.17
2019-03-01T03:00:19.981Z,10.08
2019-03-01T03:01:19.952Z,10.03
2019-03-01T03:02:19.987Z,10.12
2019-03-01T03:03:19.936Z,10.10
2019-03-01T03:04:19.922Z,10.08
2019-03-01T03:05:19.919Z,10.05
2019-03-01T03:06:19.901Z,10.09
2019-03-01T03:07:19.937Z,10.09
2019-03-01T03:08:19.884Z,10.06
2019-03-01T03:09:19.864Z,10.06
2019-03-01T03:10:19.857Z,10.06
2019-03-01T03:11:19.838Z,10.08
2019-03-01T03:12:19.824Z,10.10
2019-03-01T03:13:19.871Z,10.10
2019-03-01T03:14:19.832Z,10.16
2019-03-01T03:15:19.790Z,10.12
2019-03-01T03:16:19.779Z,10.24
2019-03-01T03:17:19.823Z,10.20
2019-03-01T03:18:19.756Z,10.30
2019-03-01T03:19:19.753Z,10.28
2019-03-01T03:20:19.782Z,10.28
2019-03-01T03:21:19.747Z,10.34
2019-03-01T03:22:19.715Z,10.35
2019-03-01T03:23:19.706Z,10.43
2019-03-01T03:24:19.750Z,10.35
2019-03-01T03:25:19.695Z,10.43
2019-03-01T03:26:19.666Z,10.39
2019-03-01T03:27:19.657Z,10.42
2019-03-01T03:28:19.656Z,10.49
2019-03-01T03:29:19.631Z,10.39
2019-03-01T03:30:19.734Z,10.41
2019-03-01T03:31:19.621Z,10.43
2019-03-01T03:32:19.600Z,10.57
2019-03-01T03:33:19.646Z,10.41
2019-03-01T03:34:19.586Z,10.46
2019-03-01T03:35:19.630Z,10.38
2019-03-01T03:36:19.554Z,10.39
2019-03-01T03:37:19.607Z,10.45
2019-03-01T03:38:19.534Z,10.39
2019-03-01T03:39:19.524Z,10.35
2019-03-01T03:40:19.508Z,10.31
2019-03-01T03:41:19.512Z,10.39
2019-03-01T03:42:19.498Z,10.35
2019-03-01T03:43:19.521Z,10.28
2019-03-01T03:44:19.513Z,10.31
2019-03-01T03:45:19.462Z,10.30
2019-03-01T03:46:19.452Z,10.28
2019-03-01T03:47:19.432Z,10.28
2019-03-01T03:48:19.425Z,10.31
2019-03-01T03:49:19.457Z,10.30
2019-03-01T03:50:19.435Z,10.34
2019-03-01T03:51:19.385Z,10.27
2019-03-01T03:52:19.411Z,10.31
2019-03-01T03:53:19.359Z,10.23
2019-03-01T03:54:19.351Z,10.34
2019-03-01T03:55:19.347Z,10.24
2019-03-01T03:56:19.327Z,10.28
2019-03-01T03:57:19.357Z,10.35
2019-03-01T03:58:19.341Z,10.35
2019-03-01T03:59:19.300Z,10.38
2019-03-01T04:00:19.283Z,10.34
2019-03-01T04:01:19.269Z,10.27
2019-03-01T04:02:19.307Z,10.36
2019-03-01T04:03:19.254Z,10.28
2019-03-01T04:04:19.276Z,10.28
2019-03-01T04:05:19.236Z,10.28
2019-03-01T04:06:19.234Z,10.30
2019-03-01T04:07:19.204Z,10.31
2019-03-01T04:08:19.196Z,10.30
2019-03-01T04:09:19.178Z,10.28
2019-03-01T04:10:19.218Z,10.24
2019-03-01T04:11:19.169Z,10.30
2019-03-01T04:12:19.143Z,10.27
2019-03-01T04:13:19.175Z,10.24
2019-03-01T04:14:19.175Z,10.27
2019-03-01T04:15:19.157Z,10.20
2019-03-01T04:16:19.123Z,10.16
2019-03-01T04:17:19.132Z,10.24
2019-03-01T04:18:19.077Z,10.20
2019-03-01T04:19:19.067Z,10.17
2019-03-01T04:20:19.068Z,10.14
2019-03-01T04:21:19.045Z,10.20
2019-03-01T04:22:19.045Z,10.14
2019-03-01T04:23:19.191Z,10.09
2019-03-01T04:24:19.061Z,10.05
2019-03-01T04:25:19.005Z,10.06
2019-03-01T04:26:18.987Z,10.09
2019-03-01T04:27:18.982Z,10.01
2019-03-01T04:28:18.967Z,10.02
2019-03-01T04:29:18.991Z,10.06
2019-03-01T04:30:18.951Z,10.03
2019-03-01T04:31:18.936Z,10.06
2019-03-01T04:32:18.924Z,10.16
2019-03-01T04:33:18.922Z,10.16
2019-03-01T04:34:18.894Z,10.10
2019-03-01T04:35:18.933Z,10.05
2019-03-01T04:36:18.874Z,10.14
2019-03-01T04:37:18.863Z,10.05
2019-03-01T04:38:18.854Z,10.06
2019-03-01T04:39:18.850Z,10.12
2019-03-01T04:40:18.825Z,10.05
2019-03-01T04:41:18.870Z,10.10
2019-03-01T04:42:18.804Z,10.12
2019-03-01T04:43:18.795Z,10.10
2019-03-01T04:44:18.790Z,10.03
2019-03-01T04:45:18.769Z,10.03
2019-03-01T04:46:18.756Z,10.03
2019-03-01T04:47:18.795Z,9.98
2019-03-01T04:48:18.737Z,10.03
2019-03-01T04:49:18.725Z,9.94
2019-03-01T04:50:18.712Z,9.98
2019-03-01T04:51:18.703Z,9.88
2019-03-01T04:52:18.690Z,9.83
2019-03-01T04:53:18.722Z,9.88
2019-03-01T04:54:18.667Z,10.02
2019-03-01T04:55:18.654Z,9.91
2019-03-01T04:56:18.644Z,9.81
2019-03-01T04:57:18.673Z,9.93
2019-03-01T04:58:18.626Z,9.83
2019-03-01T04:59:18.647Z,9.85
2019-03-01T05:00:18.600Z,9.88
2019-03-01T05:01:18.593Z,9.88
2019-03-01T05:02:18.584Z,9.85
2019-03-01T05:03:18.567Z,9.93
2019-03-01T05:04:18.560Z,9.83
2019-03-01T05:05:18.587Z,9.88
2019-03-01T05:06:18.530Z,9.85
2019-03-01T05:07:18.566Z,9.78
2019-03-01T05:08:18.504Z,9.90
2019-03-01T05:09:18.515Z,9.83
2019-03-01T05:10:18.486Z,9.93
2019-03-01T05:11:18.474Z,9.88
2019-03-01T05:12:18.469Z,9.84
2019-03-01T05:13:18.493Z,9.91
2019-03-01T05:14:18.440Z,9.87
2019-03-01T05:15:18.436Z,9.91
2019-03-01T05:16:18.416Z,9.84
2019-03-01T05:17:18.452Z,9.88
2019-03-01T05:18:18.400Z,9.88
2019-03-01T05:19:18.383Z,9.84
2019-03-01T05:20:18.370Z,9.73
2019-03-01T05:21:18.369Z,9.70
2019-03-01T05:22:18.366Z,9.70
2019-03-01T05:23:18.379Z,9.81
2019-03-01T05:24:18.370Z,9.84
2019-03-01T05:25:18.339Z,9.85
2019-03-01T05:26:18.344Z,9.90
2019-03-01T05:27:18.292Z,9.91
2019-03-01T05:28:18.328Z,9.84
2019-03-01T05:29:18.316Z,9.90
2019-03-01T05:30:18.266Z,9.85
2019-03-01T05:31:18.251Z,9.90
2019-03-01T05:32:18.235Z,9.99
2019-03-01T05:33:18.226Z,9.96
2019-03-01T05:34:18.225Z,9.94
2019-03-01T05:35:18.246Z,9.87
2019-03-01T05:36:18.191Z,9.90
2019-03-01T05:37:18.185Z,9.78
2019-03-01T05:38:21.732Z,9.87
2019-03-01T05:39:18.156Z,9.87
2019-03-01T05:40:18.189Z,9.85
2019-03-01T05:41:18.133Z,9.94
2019-03-01T05:42:18.122Z,9.88
2019-03-01T05:43:18.110Z,9.88
2019-03-01T05:44:18.127Z,9.81
2019-03-01T05:45:18.092Z,9.73
2019-03-01T05:46:18.125Z,9.67
2019-03-01T05:47:18.066Z,9.70
2019-03-01T05:48:18.058Z,9.84
2019-03-01T05:49:18.046Z,9.75
2019-03-01T05:50:18.037Z,9.67
2019-03-01T05:51:18.066Z,9.70
2019-03-01T05:52:18.013Z,9.69
2019-03-01T05:53:17.996Z,9.73
2019-03-01T05:54:17.988Z,9.63
2019-03-01T05:55:17.977Z,9.65
2019-03-01T05:56:17.986Z,9.63
2019-03-01T05:57:17.992Z,9.59
2019-03-01T05:58:17.951Z,9.60
2019-03-01T05:59:17.935Z,9.52
2019-03-01T06:00:17.972Z,9.66
2019-03-01T06:01:17.956Z,9.59
2019-03-01T06:02:17.907Z,9.57
2019-03-01T06:03:17.913Z,9.60
2019-03-01T06:04:17.886Z,9.54
2019-03-01T06:05:17.880Z,9.51
2019-03-01T06:06:17.919Z,9.48
2019-03-01T06:07:17.904Z,9.48
2019-03-01T06:08:17.835Z,9.26
2019-03-01T06:09:17.825Z,9.24
2019-03-01T06:10:17.826Z,9.30
2019-03-01T06:11:17.806Z,9.27
2019-03-01T06:12:17.858Z,9.37
2019-03-01T06:13:17.789Z,9.30
2019-03-01T06:14:17.801Z,9.23
2019-03-01T06:15:17.800Z,9.24
2019-03-01T06:16:17.744Z,9.27
2019-03-01T06:17:17.743Z,9.29
2019-03-01T06:18:17.760Z,9.19
2019-03-01T06:19:17.733Z,9.29
2019-03-01T06:20:17.702Z,9.19
2019-03-01T06:21:17.746Z,9.26
2019-03-01T06:22:17.672Z,9.19
2019-03-01T06:23:17.681Z,9.27
2019-03-01T06:24:17.660Z,9.14
2019-03-01T06:25:17.636Z,9.09
2019-03-01T06:26:17.704Z,9.16
2019-03-01T06:27:17.619Z,9.09
2019-03-01T06:28:17.649Z,9.06
2019-03-01T06:29:17.644Z,9.04
2019-03-01T06:30:17.590Z,8.99
2019-03-01T06:31:17.575Z,8.86
2019-03-01T06:32:17.612Z,9.01
2019-03-01T06:33:17.553Z,8.90
2019-03-01T06:34:17.551Z,8.88
2019-03-01T06:35:17.535Z,8.89
2019-03-01T06:36:19.459Z,8.80
2019-03-01T06:37:17.553Z,8.89
2019-03-01T06:38:17.512Z,8.86
2019-03-01T06:39:17.487Z,8.93
2019-03-01T06:40:17.482Z,8.96
2019-03-01T06:41:17.501Z,8.98
2019-03-01T06:42:17.455Z,9.06
2019-03-01T06:43:17.461Z,9.01
2019-03-01T06:44:17.492Z,9.04
2019-03-01T06:45:17.475Z,9.03
2019-03-01T06:46:17.495Z,9.06
2019-03-01T06:47:17.397Z,8.96
2019-03-01T06:48:17.389Z,9.08
2019-03-01T06:49:17.377Z,9.09
2019-03-01T06:50:17.374Z,9.12
2019-03-01T06:51:17.370Z,9.11
2019-03-01T06:52:17.385Z,9.12
2019-03-01T06:53:17.329Z,9.23
2019-03-01T06:54:17.335Z,9.22
2019-03-01T06:55:17.329Z,9.24
2019-03-01T06:56:17.302Z,9.22
2019-03-01T06:57:17.339Z,9.23
2019-03-01T06:58:17.319Z,9.19
2019-03-01T06:59:17.273Z,9.22
2019-03-01T07:00:17.250Z,9.14
2019-03-01T07:01:17.276Z,9.15
2019-03-01T07:02:17.234Z,9.18
2019-03-01T07:03:17.246Z,9.15
2019-03-01T07:04:17.200Z,9.22
2019-03-01T07:05:17.192Z,9.19
2019-03-01T07:06:17.199Z,9.11
2019-03-01T07:07:17.217Z,9.12
2019-03-01T07:08:17.218Z,9.08
2019-03-01T07:09:17.242Z,9.26
2019-03-01T07:10:17.131Z,9.22
2019-03-01T07:11:17.135Z,9.16
2019-03-01T07:12:17.212Z,9.32
2019-03-01T07:13:17.099Z,9.26
2019-03-01T07:14:17.091Z,9.22
2019-03-01T07:15:17.090Z,9.18
2019-03-01T07:16:17.113Z,9.32
2019-03-01T07:17:17.056Z,9.27
2019-03-01T07:18:17.118Z,9.16
2019-03-01T07:19:17.094Z,9.24
2019-03-01T07:20:17.061Z,9.24
2019-03-01T07:21:17.011Z,9.26
2019-03-01T07:22:17.007Z,9.22
2019-03-01T07:23:17.041Z,9.14
2019-03-01T07:24:17.034Z,9.12
2019-03-01T07:25:16.998Z,9.09
2019-03-01T07:26:16.966Z,9.15
2019-03-01T07:27:16.957Z,9.18
2019-03-01T07:28:17.011Z,9.19
2019-03-01T07:29:16.926Z,9.19
2019-03-01T07:30:16.909Z,9.36
2019-03-01T07:31:16.907Z,9.24
2019-03-01T07:32:16.888Z,9.23
2019-03-01T07:33:16.911Z,9.34
2019-03-01T07:34:16.913Z,9.36
2019-03-01T07:35:16.881Z,9.27
2019-03-01T07:36:16.848Z,9.16
2019-03-01T07:37:16.860Z,9.33
2019-03-01T07:38:16.827Z,9.23
2019-03-01T07:39:16.821Z,9.37
2019-03-01T07:40:16.842Z,9.29
2019-03-01T07:41:16.786Z,9.34
2019-03-01T07:42:16.775Z,9.34
2019-03-01T07:43:16.763Z,9.36
2019-03-01T07:44:16.782Z,9.50
2019-03-01T07:45:16.801Z,9.54
2019-03-01T07:46:16.727Z,9.51
2019-03-01T07:47:16.716Z,9.54
2019-03-01T07:48:16.728Z,9.59
2019-03-01T07:49:16.724Z,9.55
2019-03-01T07:50:16.683Z,9.52
2019-03-01T07:51:16.721Z,9.62
2019-03-01T07:52:16.686Z,9.60
2019-03-01T07:53:16.660Z,9.50
2019-03-01T07:54:17.946Z,9.44
2019-03-01T07:55:16.681Z,9.32
2019-03-01T07:56:16.622Z,9.42
2019-03-01T07:57:16.632Z,9.42
2019-03-01T07:58:16.631Z,9.44
2019-03-01T07:59:16.619Z,9.51
2019-03-01T08:00:16.565Z,9.47
2019-03-01T08:01:16.595Z,9.48
2019-03-01T08:02:16.551Z,9.51
2019-03-01T08:03:16.545Z,9.48
2019-03-01T08:04:16.579Z,9.51
2019-03-01T08:05:16.811Z,9.59
2019-03-01T08:06:16.519Z,9.54
2019-03-01T08:07:16.501Z,9.62
2019-03-01T08:08:16.487Z,9.65
2019-03-01T08:09:16.518Z,9.65
2019-03-01T08:10:20.873Z,9.50
2019-03-01T08:11:17.456Z,9.59
2019-03-01T08:12:16.466Z,9.55
2019-03-01T08:13:17.733Z,9.52
2019-03-01T08:14:16.418Z,9.48
2019-03-01T08:15:16.459Z,9.47
2019-03-01T08:16:19.776Z,9.40
2019-03-01T08:17:16.391Z,9.30
2019-03-01T08:18:16.420Z,9.32
2019-03-01T08:19:22.615Z,9.36
2019-03-01T08:20:17.347Z,9.47
2019-03-01T08:21:16.366Z,9.33
2019-03-01T08:22:16.378Z,9.36
2019-03-01T08:23:16.371Z,9.42
2019-03-01T08:24:16.344Z,9.40
2019-03-01T08:25:22.636Z,9.34
2019-03-01T08:26:17.310Z,9.30
2019-03-01T08:27:16.274Z,9.33
2019-03-01T08:28:18.434Z,9.41
2019-03-01T08:29:17.296Z,9.34
2019-03-01T08:30:16.245Z,9.22
2019-03-01T08:31:17.546Z,9.27
2019-03-01T08:32:16.211Z,9.30
2019-03-01T08:33:16.252Z,9.24
2019-03-01T08:34:17.923Z,9.37
2019-03-01T08:35:16.177Z,9.24
2019-03-01T08:36:16.219Z,9.29
2019-03-01T08:37:17.632Z,9.30
2019-03-01T08:38:16.138Z,9.29
2019-03-01T08:39:16.137Z,9.15
2019-03-01T08:40:16.127Z,9.23
2019-03-01T08:41:16.153Z,9.24
2019-03-01T08:42:16.141Z,9.26
2019-03-01T08:43:16.093Z,9.36
2019-03-01T08:44:19.420Z,9.23
2019-03-01T08:45:17.086Z,9.36
2019-03-01T08:46:16.057Z,9.26
2019-03-01T08:47:20.315Z,9.27
2019-03-01T08:48:17.036Z,9.26
2019-03-01T08:49:16.063Z,9.29
2019-03-01T08:50:16.000Z,9.26
2019-03-01T08:51:15.995Z,9.29
2019-03-01T08:52:15.989Z,9.29
2019-03-01T08:53:16.137Z,9.24
2019-03-01T08:54:15.965Z,9.18
2019-03-01T08:55:15.997Z,9.27
2019-03-01T08:56:15.936Z,9.22
2019-03-01T08:57:15.934Z,9.29
2019-03-01T08:58:15.920Z,9.33
2019-03-01T08:59:17.436Z,9.27
2019-03-01T09:00:15.895Z,9.18
2019-03-01T09:01:15.957Z,9.23
2019-03-01T09:02:15.872Z,9.18
2019-03-01T09:03:21.877Z,9.27
2019-03-01T09:04:18.011Z,9.29
2019-03-01T09:05:15.885Z,9.27
2019-03-01T09:06:15.848Z,9.23
2019-03-01T09:07:15.870Z,9.37
2019-03-01T09:08:15.813Z,9.33
2019-03-01T09:09:17.650Z,9.30
2019-03-01T09:10:15.809Z,9.19
2019-03-01T09:11:15.770Z,9.29
2019-03-01T09:12:15.819Z,9.29
2019-03-01T09:13:15.772Z,9.24
2019-03-01T09:14:15.738Z,9.27
2019-03-01T09:15:15.723Z,9.27
2019-03-01T09:16:15.710Z,9.24
2019-03-01T09:17:15.720Z,9.29
2019-03-01T09:18:15.737Z,9.33
2019-03-01T09:19:15.682Z,9.33
2019-03-01T09:20:15.684Z,9.45
2019-03-01T09:21:15.663Z,9.48
2019-03-01T09:22:15.653Z,9.51
2019-03-01T09:23:22.768Z,9.50
2019-03-01T09:24:16.666Z,9.54
2019-03-01T09:25:15.609Z,9.60
2019-03-01T09:26:16.706Z,9.63
2019-03-01T09:27:15.606Z,9.69
2019-03-01T09:28:15.574Z,9.67
2019-03-01T09:29:18.519Z,9.72
2019-03-01T09:30:15.573Z,9.72
2019-03-01T09:31:15.540Z,9.77
2019-03-01T09:32:15.584Z,9.73
2019-03-01T09:33:17.261Z,9.72
2019-03-01T09:34:16.520Z,9.70
2019-03-01T09:35:15.534Z,9.62
2019-03-01T09:36:17.809Z,9.70
2019-03-01T09:37:16.556Z,9.67
2019-03-01T09:38:15.486Z,9.69
2019-03-01T09:39:18.174Z,9.75
2019-03-01T09:40:15.457Z,9.78
2019-03-01T09:41:15.488Z,9.69
2019-03-01T09:42:16.239Z,9.75
2019-03-01T09:43:15.409Z,9.78
2019-03-01T09:44:15.400Z,9.85
2019-03-01T09:45:15.384Z,9.81
2019-03-01T09:46:15.393Z,9.78
2019-03-01T09:47:15.401Z,9.67
2019-03-01T09:48:15.342Z,9.63
2019-03-01T09:49:15.396Z,9.60
2019-03-01T09:50:15.333Z,9.44
2019-03-01T09:51:16.012Z,9.48
2019-03-01T09:52:15.325Z,9.62
2019-03-01T09:53:15.306Z,9.60
2019-03-01T09:54:15.280Z,9.52
2019-03-01T09:55:15.302Z,9.54
2019-03-01T09:56:15.262Z,9.51
2019-03-01T09:57:15.664Z,9.57
2019-03-01T09:58:15.296Z,9.47
2019-03-01T09:59:15.234Z,9.42
2019-03-01T10:00:15.232Z,9.48
2019-03-01T10:01:15.201Z,9.33
2019-03-01T10:02:15.232Z,9.41
2019-03-01T10:03:15.188Z,9.33
2019-03-01T10:04:15.249Z,9.27
2019-03-01T10:05:15.155Z,9.34
2019-03-01T10:06:15.144Z,9.29
2019-03-01T10:07:15.137Z,9.40
2019-03-01T10:08:15.128Z,9.33
2019-03-01T10:09:15.123Z,9.44
2019-03-01T10:10:15.137Z,9.33
2019-03-01T10:11:15.142Z,9.18
2019-03-01T10:12:15.076Z,9.27
2019-03-01T10:13:15.074Z,9.37
2019-03-01T10:14:15.079Z,9.29
2019-03-01T10:15:15.098Z,9.19
2019-03-01T10:16:15.093Z,9.19
2019-03-01T10:17:15.067Z,9.22
2019-03-01T10:18:15.002Z,9.18
2019-03-01T10:19:15.021Z,9.26
2019-03-01T10:20:14.996Z,9.24
2019-03-01T10:21:14.980Z,9.23
2019-03-01T10:22:15.000Z,9.19
2019-03-01T10:23:14.959Z,9.15
2019-03-01T10:24:14.938Z,9.12
2019-03-01T10:25:14.974Z,8.90
2019-03-01T10:26:14.913Z,8.83
2019-03-01T10:27:14.913Z,8.81
2019-03-01T10:28:14.899Z,8.77
2019-03-01T10:29:14.892Z,8.57
2019-03-01T10:30:15.177Z,8.74
2019-03-01T10:31:14.889Z,8.71
2019-03-01T10:32:14.856Z,8.75
2019-03-01T10:33:14.864Z,8.68
2019-03-01T10:34:14.841Z,8.60
2019-03-01T10:35:14.824Z,8.59
2019-03-01T10:36:14.849Z,8.62
2019-03-01T10:37:14.791Z,8.68
2019-03-01T10:38:14.803Z,8.70
2019-03-01T10:39:14.777Z,8.72
2019-03-01T10:40:14.790Z,8.77
2019-03-01T10:41:14.771Z,8.53
2019-03-01T10:42:14.777Z,8.41
2019-03-01T10:43:14.734Z,8.32
2019-03-01T10:44:14.724Z,8.35
2019-03-01T10:45:14.785Z,8.50
2019-03-01T10:46:14.707Z,8.39
2019-03-01T10:47:14.689Z,8.44
2019-03-01T10:48:14.691Z,8.52
2019-03-01T10:49:14.707Z,8.47
2019-03-01T10:50:14.697Z,8.55
2019-03-01T10:51:14.741Z,8.62
2019-03-01T10:52:14.640Z,8.60
2019-03-01T10:53:14.739Z,8.57
2019-03-01T10:54:14.634Z,8.60
2019-03-01T10:55:14.595Z,8.57
2019-03-01T10:56:14.629Z,8.60
2019-03-01T10:57:14.566Z,8.60
2019-03-01T10:58:14.583Z,8.62
2019-03-01T10:59:14.555Z,8.46
2019-03-01T11:00:14.588Z,8.46
2019-03-01T11:01:14.529Z,8.39
2019-03-01T11:02:14.526Z,8.41
2019-03-01T11:03:14.503Z,8.39
2019-03-01T11:04:14.488Z,8.31
2019-03-01T11:05:14.478Z,8.41
2019-03-01T11:06:14.518Z,8.47
2019-03-01T11:07:14.465Z,8.42
2019-03-01T11:08:14.443Z,8.35
2019-03-01T11:09:14.431Z,8.32
2019-03-01T11:10:14.438Z,8.32
2019-03-01T11:11:14.444Z,8.26
2019-03-01T11:12:14.436Z,8.29
2019-03-01T11:13:14.398Z,8.29
2019-03-01T11:14:14.385Z,8.24
2019-03-01T11:15:14.372Z,8.31
2019-03-01T11:16:14.422Z,8.28
2019-03-01T11:17:14.344Z,8.21
2019-03-01T11:18:14.437Z,8.19
2019-03-01T11:19:14.319Z,8.24
2019-03-01T11:20:14.318Z,8.29
2019-03-01T11:21:14.305Z,8.28
2019-03-01T11:22:14.284Z,8.29
2019-03-01T11:23:14.272Z,8.34
2019-03-01T11:24:14.335Z,8.29
2019-03-01T11:25:14.259Z,8.23
2019-03-01T11:26:14.273Z,8.14
2019-03-01T11:27:14.318Z,8.10
2019-03-01T11:28:14.217Z,8.24
2019-03-01T11:29:14.220Z,8.26
2019-03-01T11:30:14.196Z,8.29
2019-03-01T11:31:14.199Z,8.34
2019-03-01T11:32:14.178Z,8.44
2019-03-01T11:33:14.231Z,8.42
2019-03-01T11:34:14.150Z,8.47
2019-03-01T11:35:14.219Z,8.37
2019-03-01T11:36:14.148Z,8.31
2019-03-01T11:37:14.145Z,8.28
2019-03-01T11:38:14.171Z,8.28
2019-03-01T11:39:14.090Z,8.32
2019-03-01T11:40:14.098Z,8.34
2019-03-01T11:41:14.071Z,8.32
2019-03-01T11:42:14.073Z,8.32
2019-03-01T11:43:14.157Z,8.31
2019-03-01T11:44:14.044Z,8.23
2019-03-01T11:45:14.043Z,8.28
2019-03-01T11:46:14.107Z,8.24
2019-03-01T11:47:14.023Z,8.21
2019-03-01T11:48:14.005Z,8.24
2019-03-01T11:49:13.982Z,8.13
2019-03-01T11:50:13.986Z,8.13
2019-03-01T11:51:13.962Z,8.13
2019-03-01T11:52:14.044Z,8.13
2019-03-01T11:53:13.935Z,8.20
2019-03-01T11:54:13.924Z,8.13
2019-03-01T11:55:13.925Z,8.19
2019-03-01T11:56:13.910Z,8.20
2019-03-01T11:57:13.959Z,8.23
2019-03-01T11:58:13.890Z,8.26
2019-03-01T11:59:13.863Z,8.32
2019-03-01T12:00:13.956Z,8.38
2019-03-01T12:01:17.119Z,8.31
2019-03-01T12:02:13.846Z,8.29
2019-03-01T12:03:15.462Z,8.32
2019-03-01T12:04:13.807Z,8.24
2019-03-01T12:05:13.799Z,8.31
2019-03-01T12:06:13.868Z,8.28
2019-03-01T12:07:13.785Z,8.32
2019-03-01T12:08:13.770Z,8.31
2019-03-01T12:09:13.776Z,8.32
2019-03-01T12:10:13.758Z,8.37
2019-03-01T12:11:13.774Z,8.26
2019-03-01T12:12:13.783Z,8.29
2019-03-01T12:13:13.712Z,8.29
2019-03-01T12:14:13.708Z,8.29
2019-03-01T12:15:13.688Z,8.24
2019-03-01T12:16:13.707Z,8.32
2019-03-01T12:17:13.663Z,8.35
2019-03-01T12:18:13.732Z,8.29
2019-03-01T12:19:13.719Z,8.32
2019-03-01T12:20:13.649Z,8.37
2019-03-01T12:21:13.631Z,8.35
2019-03-01T12:22:17.057Z,8.29
2019-03-01T12:23:13.729Z,8.29
2019-03-01T12:24:13.633Z,8.35
2019-03-01T12:25:13.577Z,8.35
2019-03-01T12:26:13.582Z,8.28
2019-03-01T12:27:13.556Z,8.20
2019-03-01T12:28:13.669Z,8.26
2019-03-01T12:29:13.535Z,8.29
2019-03-01T12:30:13.532Z,8.31
2019-03-01T12:31:13.529Z,8.31
2019-03-01T12:32:13.502Z,8.39
2019-03-01T12:33:13.573Z,8.31
2019-03-01T12:34:13.512Z,8.31
2019-03-01T12:35:13.530Z,8.41
2019-03-01T12:36:13.468Z,8.55
2019-03-01T12:37:13.491Z,8.55
2019-03-01T12:38:13.446Z,8.62
2019-03-01T12:39:13.518Z,8.55
2019-03-01T12:40:13.412Z,8.56
2019-03-01T12:41:13.440Z,8.60
2019-03-01T12:42:13.400Z,8.57
2019-03-01T12:43:13.372Z,8.71
2019-03-01T12:44:13.362Z,8.67
2019-03-01T12:45:13.434Z,8.78
2019-03-01T12:46:13.419Z,8.78
2019-03-01T12:47:13.335Z,8.86
2019-03-01T12:48:13.397Z,8.99
2019-03-01T12:49:13.300Z,8.85
2019-03-01T12:50:13.416Z,8.86
2019-03-01T12:51:13.285Z,8.80
2019-03-01T12:52:13.304Z,8.88
2019-03-01T12:53:13.271Z,8.63
2019-03-01T12:54:13.250Z,8.75
2019-03-01T12:55:13.235Z,8.60
2019-03-01T12:56:13.299Z,8.70
2019-03-01T12:57:13.230Z,8.72
2019-03-01T12:58:19.377Z,8.67
2019-03-01T12:59:14.190Z,8.49
2019-03-01T13:00:13.187Z,8.49
2019-03-01T13:01:13.166Z,8.47
2019-03-01T13:02:13.226Z,8.60
2019-03-01T13:03:13.144Z,8.59
2019-03-01T13:04:15.634Z,8.62
2019-03-01T13:05:14.224Z,8.56
2019-03-01T13:06:13.145Z,8.44
2019-03-01T13:07:13.403Z,8.50
2019-03-01T13:08:15.811Z,8.59